Allenville, Illinois
Current Conditions -  °F | °C
As of 10:53 PM on Saturday 25 Oct 2014 (Local Time) from KMTO Reporting Station
Clear Clear  
Wind Chill: 52°   Ceiling: Unl
Heat Index: 52°   Visibility: 10mi
Dew Point: 44°   Wind: 7mph
Humidity: 74%   Direction: 300°WNW
Pressure: 30"   Gusts: NA
Location:  39.5872°N, 88.5835°W
Report Text: KMTO 260353Z AUTO 30006KT 10SM CLR 11/07 A3000 RMK AO2 SLP157 T01110067
Loading
Personal Weather Stations






























Interactive Weather Map
Tropical Storm Tracking
New forecast layout! Learn more

10-Day Weather Forecast

Advertisements
Track Severe Weather on mobile